createdAt,value
2022-07-30T00:34:52.703Z,4.43
2022-07-30T00:37:19.308Z,4.45
2022-07-30T00:39:45.817Z,4.97
2022-07-30T00:42:12.313Z,4.57
2022-07-30T00:44:40.945Z,4.65
2022-07-30T00:47:07.743Z,4.75
2022-07-30T00:49:34.274Z,4.85
2022-07-30T00:52:00.848Z,4.85
2022-07-30T00:54:27.381Z,4.70
2022-07-30T00:56:53.891Z,4.90
2022-07-30T00:59:20.764Z,4.57
2022-07-30T01:01:47.371Z,4.60
2022-07-30T01:04:13.887Z,4.70
2022-07-30T01:06:40.630Z,4.68
2022-07-30T01:09:08.436Z,4.70
2022-07-30T01:14:06.896Z,5.82
2022-07-30T01:16:35.282Z,5.40
2022-07-30T01:19:28.417Z,6.35
2022-07-30T01:22:11.200Z,4.82
2022-07-30T01:24:43.477Z,5.80
2022-07-30T01:27:11.494Z,5.25
2022-07-30T01:29:41.054Z,5.20
2022-07-30T01:32:09.023Z,5.25
2022-07-30T01:34:37.727Z,5.18
2022-07-30T01:37:05.918Z,4.68
2022-07-30T01:39:33.805Z,5.15
2022-07-30T01:42:05.375Z,5.25
2022-07-30T01:44:32.944Z,5.38
2022-07-30T01:47:00.913Z,5.15
2022-07-30T01:49:29.892Z,4.45
2022-07-30T01:51:58.476Z,4.45
2022-07-30T01:54:26.759Z,5.20
2022-07-30T01:56:56.249Z,5.10
2022-07-30T01:59:24.117Z,5.10
2022-07-30T02:01:50.866Z,5.32
2022-07-30T02:04:17.472Z,6.10
2022-07-30T02:06:49.841Z,5.18
2022-07-30T02:09:21.821Z,5.38
2022-07-30T02:12:09.531Z,5.22
2022-07-30T02:14:49.594Z,5.35
2022-07-30T02:17:45.216Z,5.38
2022-07-30T02:20:14.541Z,5.60
2022-07-30T02:22:46.198Z,5.85
2022-07-30T02:25:17.469Z,5.70
2022-07-30T02:27:46.591Z,6.13
2022-07-30T02:30:13.514Z,5.18
2022-07-30T02:32:43.759Z,6.93
2022-07-30T02:35:20.050Z,6.10
2022-07-30T02:37:50.756Z,6.45
2022-07-30T02:40:20.146Z,6.88
2022-07-30T02:42:50.047Z,6.78
2022-07-30T02:45:18.072Z,8.95
2022-07-30T02:47:53.511Z,8.15
2022-07-30T02:50:21.169Z,9.05
2022-07-30T02:52:49.673Z,8.73
2022-07-30T02:55:18.090Z,9.20
2022-07-30T02:57:46.090Z,9.13
2022-07-30T03:00:13.186Z,9.48
2022-07-30T03:02:43.596Z,8.93
2022-07-30T03:05:12.031Z,9.10
2022-07-30T03:07:40.243Z,9.00
2022-07-30T03:10:07.990Z,9.18
2022-07-30T03:15:02.330Z,10.13
2022-07-30T03:17:32.978Z,9.68
2022-07-30T03:20:01.181Z,10.00
2022-07-30T03:22:33.011Z,10.25
2022-07-30T03:25:02.423Z,9.40
2022-07-30T03:27:30.957Z,9.40
2022-07-30T03:29:59.201Z,9.60
2022-07-30T03:32:26.747Z,8.75
2022-07-30T03:34:54.572Z,9.00
2022-07-30T03:37:22.867Z,8.20
2022-07-30T03:39:49.670Z,9.50
2022-07-30T03:42:16.699Z,9.10
2022-07-30T03:44:45.833Z,9.17
2022-07-30T03:47:14.444Z,9.90
2022-07-30T03:49:41.079Z,10.43
2022-07-30T03:52:08.329Z,10.80
2022-07-30T03:54:35.758Z,10.60
2022-07-30T03:57:04.817Z,9.43
2022-07-30T03:59:31.781Z,9.90
2022-07-30T04:02:05.995Z,11.30
2022-07-30T04:04:33.701Z,10.68
2022-07-30T04:07:00.620Z,10.50
2022-07-30T04:09:27.400Z,9.85
2022-07-30T04:11:53.984Z,10.45
2022-07-30T04:14:20.518Z,10.75
2022-07-30T04:17:11.998Z,10.68
2022-07-30T04:20:05.336Z,10.70
2022-07-30T04:22:34.907Z,11.35
2022-07-30T04:25:03.167Z,11.23
2022-07-30T04:27:31.850Z,10.93
2022-07-30T04:29:58.761Z,11.70
2022-07-30T04:32:25.855Z,11.17
2022-07-30T04:34:54.656Z,11.23
2022-07-30T04:37:24.673Z,11.82
2022-07-30T04:39:54.864Z,11.55
2022-07-30T04:42:22.399Z,11.75
2022-07-30T04:44:49.914Z,12.73
2022-07-30T04:47:20.497Z,12.20
2022-07-30T04:49:47.940Z,12.00
2022-07-30T04:52:15.988Z,10.93
2022-07-30T04:54:53.039Z,11.35
2022-07-30T04:57:20.195Z,12.63
2022-07-30T04:59:46.951Z,11.60
2022-07-30T05:02:15.980Z,12.70
2022-07-30T05:04:43.103Z,12.98
2022-07-30T05:07:12.242Z,12.53
2022-07-30T05:09:39.679Z,12.02
2022-07-30T05:12:10.145Z,13.32
2022-07-30T05:14:36.766Z,14.18
2022-07-30T05:17:03.869Z,13.48
2022-07-30T05:19:30.918Z,14.38
2022-07-30T05:21:57.526Z,13.40
2022-07-30T05:24:24.169Z,13.82
2022-07-30T05:26:51.114Z,15.70
2022-07-30T05:29:19.916Z,14.33
2022-07-30T05:31:47.079Z,15.30
2022-07-30T05:34:13.643Z,14.87
2022-07-30T05:36:40.201Z,14.75
2022-07-30T05:39:06.749Z,15.30
2022-07-30T05:41:33.483Z,15.82
2022-07-30T05:44:00.645Z,16.48
2022-07-30T05:46:27.353Z,16.10
2022-07-30T05:48:54.179Z,16.48
2022-07-30T05:51:22.243Z,16.20
2022-07-30T05:53:49.225Z,16.55
2022-07-30T05:56:15.845Z,16.80
2022-07-30T05:58:42.409Z,18.40
2022-07-30T06:01:09.160Z,18.13
2022-07-30T06:03:35.788Z,18.10
2022-07-30T06:06:07.089Z,17.25
2022-07-30T06:08:33.951Z,16.85
2022-07-30T06:11:00.489Z,16.47
2022-07-30T06:13:27.090Z,14.27
2022-07-30T06:15:53.650Z,22.40
2022-07-30T06:18:23.050Z,22.23
2022-07-30T06:20:51.979Z,20.92
2022-07-30T06:23:18.819Z,19.67
2022-07-30T06:25:45.384Z,18.17
2022-07-30T06:28:35.265Z,21.08
2022-07-30T17:31:03.810Z,1.77
2022-07-30T17:33:30.417Z,1.60
2022-07-30T17:35:57.087Z,1.40
2022-07-30T17:38:23.664Z,1.60
2022-07-30T17:40:50.460Z,1.90
2022-07-30T17:43:17.010Z,3.00
2022-07-30T17:45:43.670Z,3.45
2022-07-30T17:48:10.287Z,1.98
2022-07-30T17:50:37.060Z,2.22
2022-07-30T17:53:05.285Z,1.60
2022-07-30T17:59:39.828Z,1.77
2022-07-30T18:02:06.680Z,6.13
2022-07-30T18:07:02.916Z,3.15
2022-07-30T18:09:31.245Z,2.58
2022-07-30T18:12:06.437Z,3.60
2022-07-30T18:14:33.274Z,1.98
2022-07-30T18:17:00.523Z,2.42
2022-07-30T18:19:27.559Z,1.38
2022-07-30T18:21:54.657Z,1.98
2022-07-30T18:24:24.858Z,3.08
2022-07-30T18:26:52.068Z,3.67
2022-07-30T18:29:18.711Z,10.05
2022-07-30T18:31:47.522Z,5.03
2022-07-30T18:34:14.363Z,4.40
2022-07-30T18:36:41.010Z,3.97
2022-07-30T18:39:07.753Z,2.72
2022-07-30T18:41:34.372Z,2.50
2022-07-30T18:44:01.006Z,2.47
2022-07-30T18:46:28.030Z,3.23
2022-07-30T18:48:54.711Z,3.25
2022-07-30T18:51:25.179Z,3.42
2022-07-30T18:53:52.889Z,2.40
2022-07-30T18:56:20.705Z,2.80
2022-07-30T18:58:47.526Z,2.33
2022-07-30T19:01:14.309Z,2.55
2022-07-30T19:03:40.947Z,2.60
2022-07-30T19:06:07.554Z,2.50
2022-07-30T19:08:34.160Z,2.87
2022-07-30T19:11:01.166Z,2.50
2022-07-30T19:13:27.822Z,2.60
2022-07-30T19:15:54.557Z,2.40
2022-07-30T19:18:21.468Z,4.27
2022-07-30T19:20:48.297Z,2.28
2022-07-30T19:23:16.470Z,1.95
2022-07-30T19:25:43.056Z,2.00
2022-07-30T19:28:11.335Z,2.13
2022-07-30T19:30:37.954Z,2.42
2022-07-30T19:33:07.558Z,2.00
2022-07-30T19:35:36.005Z,1.55
2022-07-30T19:38:03.172Z,2.33
2022-07-30T19:40:30.685Z,2.25
2022-07-30T19:43:04.024Z,2.30
2022-07-30T19:45:47.378Z,2.35
2022-07-30T19:48:15.467Z,1.55
2022-07-30T19:50:57.745Z,2.22
2022-07-30T19:53:25.258Z,2.83
2022-07-30T19:55:51.918Z,2.30
2022-07-30T19:58:19.123Z,1.98
2022-07-30T20:00:48.500Z,2.10
2022-07-30T20:03:19.059Z,2.25
2022-07-30T20:05:57.552Z,2.30
2022-07-30T20:08:27.421Z,2.20
2022-07-30T20:10:57.539Z,2.20
2022-07-30T20:13:45.354Z,2.42
2022-07-30T20:16:12.274Z,2.53
2022-07-30T20:18:39.581Z,3.00
2022-07-30T20:21:10.143Z,3.63
2022-07-30T20:23:40.725Z,2.47
2022-07-30T20:26:12.396Z,2.20
2022-07-30T20:28:40.453Z,2.10
2022-07-30T20:31:07.219Z,2.50
2022-07-30T20:33:35.999Z,2.40
2022-07-30T20:36:05.170Z,2.03
2022-07-30T20:38:38.752Z,1.95
2022-07-30T20:41:10.014Z,2.33
2022-07-30T20:43:45.888Z,2.55
2022-07-30T20:46:13.851Z,2.80
2022-07-30T20:48:42.343Z,2.72
2022-07-30T20:51:11.620Z,2.17
2022-07-30T20:53:38.226Z,2.00
2022-07-30T20:56:05.032Z,2.07
2022-07-30T20:58:31.600Z,2.60
2022-07-30T21:01:00.755Z,2.35
2022-07-30T21:03:31.817Z,2.30
2022-07-30T21:08:26.566Z,2.55
2022-07-30T21:10:53.574Z,2.73
2022-07-30T21:13:22.409Z,2.55
2022-07-30T21:16:02.402Z,2.78
2022-07-30T21:18:30.639Z,3.13
2022-07-30T21:23:24.769Z,2.87
2022-07-30T21:28:35.306Z,2.42
2022-07-30T21:31:02.350Z,2.40
2022-07-30T21:33:31.142Z,2.40
2022-07-30T21:35:58.685Z,2.58
2022-07-30T21:38:26.667Z,2.50
2022-07-30T21:40:53.556Z,10.00
2022-07-30T21:43:22.889Z,3.22
2022-07-30T21:45:56.519Z,2.95
2022-07-30T21:48:24.408Z,2.85
2022-07-30T21:50:51.118Z,2.42
2022-07-30T21:53:17.777Z,2.63
2022-07-30T21:56:04.588Z,2.63
2022-07-30T21:58:32.569Z,2.72
2022-07-30T22:01:04.015Z,2.50
2022-07-30T22:04:04.604Z,2.58
2022-07-30T22:06:29.609Z,2.88
2022-07-30T22:08:56.569Z,3.40
2022-07-30T22:11:23.222Z,2.90
2022-07-30T22:13:51.281Z,2.50
2022-07-30T22:16:21.472Z,2.70
2022-07-30T22:18:48.185Z,2.92
2022-07-30T22:21:15.047Z,2.20
2022-07-30T22:23:58.575Z,2.88
2022-07-30T22:26:28.455Z,2.45
2022-07-30T22:28:55.123Z,2.67
2022-07-30T22:31:21.801Z,3.03
2022-07-30T22:33:49.866Z,3.25
2022-07-30T22:36:19.901Z,2.38
2022-07-30T22:38:58.453Z,2.70
2022-07-30T22:41:26.411Z,2.15
2022-07-30T22:43:55.841Z,2.28
2022-07-30T22:46:30.213Z,2.10
2022-07-30T22:48:58.103Z,2.40
2022-07-30T22:51:26.371Z,2.38
2022-07-30T22:54:13.338Z,2.45
2022-07-30T22:56:41.517Z,6.53
2022-07-30T22:59:08.344Z,3.70
2022-07-30T23:01:34.945Z,3.13
2022-07-30T23:04:01.766Z,3.25
2022-07-30T23:06:30.071Z,2.13
2022-07-30T23:08:57.160Z,2.40
2022-07-30T23:11:23.824Z,2.50
2022-07-30T23:13:53.905Z,3.23
2022-07-30T23:16:20.489Z,2.58
2022-07-30T23:18:47.638Z,2.58
2022-07-30T23:21:15.078Z,2.70
2022-07-30T23:23:41.872Z,2.65
2022-07-30T23:26:08.802Z,2.63
2022-07-30T23:28:36.924Z,2.42
2022-07-30T23:31:04.379Z,2.45
2022-07-30T23:36:00.393Z,2.33
2022-07-30T23:38:27.566Z,2.38
2022-07-30T23:40:54.556Z,2.55
2022-07-30T23:43:21.238Z,2.47
2022-07-30T23:45:47.829Z,2.63
2022-07-30T23:48:15.104Z,2.72
2022-07-30T23:50:41.700Z,3.00
2022-07-30T23:53:08.250Z,2.33
2022-07-30T23:55:34.856Z,2.28
2022-07-30T23:58:01.492Z,2.80
